createdAt,value
2023-04-07T00:01:12.634Z,74.26
2023-04-07T00:04:15.597Z,74.41
2023-04-07T00:07:20.166Z,74.40
2023-04-07T00:10:22.952Z,74.91
2023-04-07T00:13:26.302Z,75.29
2023-04-07T00:16:28.934Z,75.00
2023-04-07T00:19:33.370Z,75.42
2023-04-07T00:22:37.723Z,76.49
2023-04-07T00:25:40.391Z,77.16
2023-04-07T00:28:42.991Z,77.97
2023-04-07T00:31:45.650Z,78.14
2023-04-07T00:34:48.266Z,78.28
2023-04-07T00:37:52.359Z,78.70
2023-04-07T00:40:58.685Z,78.86
2023-04-07T00:44:01.486Z,78.60
2023-04-07T00:47:04.479Z,78.86
2023-04-07T00:50:08.316Z,78.88
2023-04-07T00:53:12.958Z,78.83
2023-04-07T00:56:16.056Z,79.60
2023-04-07T00:59:19.396Z,79.95
2023-04-07T01:02:28.834Z,79.98
2023-04-07T01:05:39.139Z,80.37
2023-04-07T01:08:51.346Z,80.80
2023-04-07T01:12:04.786Z,80.98
2023-04-07T01:15:10.860Z,79.66
2023-04-07T01:18:18.858Z,79.70
2023-04-07T01:21:27.080Z,80.55
2023-04-07T01:24:58.941Z,80.31
2023-04-07T01:28:19.055Z,80.52
2023-04-07T01:31:27.282Z,80.67
2023-04-07T01:34:32.383Z,80.16
2023-04-07T01:37:35.752Z,80.34
2023-04-07T01:40:40.342Z,80.46
2023-04-07T01:43:45.134Z,79.98
2023-04-07T01:46:51.590Z,80.19
2023-04-07T01:49:55.247Z,80.01
2023-04-07T01:52:58.507Z,80.00
2023-04-07T01:56:01.318Z,80.39
2023-04-07T01:59:03.956Z,81.02
2023-04-07T02:02:08.374Z,81.67
2023-04-07T02:05:14.660Z,82.03
2023-04-07T02:08:18.853Z,81.49
2023-04-07T02:11:23.618Z,81.70
2023-04-07T02:14:26.902Z,81.26
2023-04-07T02:17:34.842Z,80.98
2023-04-07T02:20:38.557Z,80.88
2023-04-07T02:23:41.291Z,80.30
2023-04-07T02:26:44.092Z,79.53
2023-04-07T02:29:46.717Z,79.35
2023-04-07T02:32:50.886Z,79.41
2023-04-07T02:35:53.597Z,79.58
2023-04-07T02:38:56.582Z,80.53
2023-04-07T02:41:59.239Z,81.14
2023-04-07T02:45:01.874Z,79.80
2023-04-07T02:48:06.283Z,80.52
2023-04-07T02:51:08.879Z,80.28
2023-04-07T02:54:11.596Z,79.95
2023-04-07T02:57:14.662Z,80.54
2023-04-07T03:00:17.572Z,80.96
2023-04-07T03:03:21.720Z,80.96
2023-04-07T03:06:24.449Z,81.24
2023-04-07T03:09:27.415Z,81.14
2023-04-07T03:12:30.072Z,81.21
2023-04-07T03:15:32.703Z,80.86
2023-04-07T03:18:36.656Z,80.74
2023-04-07T03:21:39.754Z,80.05
2023-04-07T03:24:42.381Z,79.96
2023-04-07T03:27:45.181Z,79.59
2023-04-07T03:30:47.790Z,79.09
2023-04-07T03:33:52.183Z,78.86
2023-04-07T03:36:55.116Z,79.49
2023-04-07T03:39:57.776Z,79.77
2023-04-07T03:43:00.369Z,79.33
2023-04-07T03:46:03.109Z,79.66
2023-04-07T03:49:07.498Z,79.56
2023-04-07T03:52:10.205Z,79.18
2023-04-07T03:55:12.819Z,79.11
2023-04-07T03:58:15.509Z,78.97
2023-04-07T04:01:18.181Z,78.44
2023-04-07T04:04:24.346Z,78.72
2023-04-07T04:07:27.286Z,78.14
2023-04-07T04:10:29.948Z,78.03
2023-04-07T04:13:32.897Z,78.58
2023-04-07T04:16:36.426Z,78.51
2023-04-07T04:19:40.482Z,79.09
2023-04-07T04:22:43.115Z,79.39
2023-04-07T04:25:45.778Z,79.94
2023-04-07T04:28:48.363Z,80.47
2023-04-07T04:31:51.012Z,81.22
2023-04-07T04:34:55.343Z,81.37
2023-04-07T04:37:57.996Z,81.41
2023-04-07T04:41:00.603Z,81.76
2023-04-07T04:44:03.155Z,82.21
2023-04-07T04:47:05.840Z,82.54
2023-04-07T04:50:10.978Z,82.62
2023-04-07T04:53:13.566Z,82.69
2023-04-07T04:56:17.053Z,81.80
2023-04-07T04:59:19.649Z,81.48
2023-04-07T05:02:22.410Z,81.41
2023-04-07T05:05:26.494Z,81.99
2023-04-07T05:08:29.103Z,82.07
2023-04-07T05:11:31.745Z,82.27
2023-04-07T05:14:34.386Z,82.41
2023-04-07T05:17:37.034Z,82.60
2023-04-07T05:20:41.428Z,82.92
2023-04-07T05:23:44.038Z,83.05
2023-04-07T05:26:46.666Z,82.52
2023-04-07T05:29:49.276Z,82.90
2023-04-07T05:32:52.002Z,82.58
2023-04-07T05:35:56.190Z,83.13
2023-04-07T05:38:58.823Z,82.69
2023-04-07T05:42:02.093Z,82.87
2023-04-07T05:45:05.458Z,83.31
2023-04-07T05:48:08.083Z,83.46
2023-04-07T05:51:12.012Z,83.21
2023-04-07T05:54:14.634Z,82.56
2023-04-07T05:57:17.253Z,82.69
2023-04-07T06:00:20.766Z,81.48
2023-04-07T06:03:23.543Z,81.35
2023-04-07T06:06:28.611Z,81.35
2023-04-07T06:09:31.374Z,81.00
2023-04-07T06:12:33.925Z,80.85
2023-04-07T06:15:36.587Z,81.05
2023-04-07T06:18:39.226Z,81.28
2023-04-07T06:21:43.342Z,81.61
2023-04-07T06:24:45.994Z,81.50
2023-04-07T06:27:48.706Z,81.05
2023-04-07T06:30:51.408Z,81.24
2023-04-07T06:33:54.221Z,81.76
2023-04-07T06:36:59.382Z,81.48
2023-04-07T06:40:02.236Z,81.68
2023-04-07T06:43:05.041Z,81.26
2023-04-07T06:46:07.793Z,79.95
2023-04-07T06:49:10.673Z,80.38
2023-04-07T06:52:14.709Z,79.75
2023-04-07T06:55:17.466Z,80.03
2023-04-07T06:58:20.350Z,78.78
2023-04-07T07:01:23.186Z,78.90
2023-04-07T07:04:26.102Z,78.19
2023-04-07T07:07:30.199Z,78.63
2023-04-07T07:10:32.817Z,78.37
2023-04-07T07:13:35.410Z,78.36
2023-04-07T07:16:38.171Z,78.14
2023-04-07T07:19:40.842Z,77.66
2023-04-07T07:22:44.787Z,78.30
2023-04-07T07:25:47.683Z,77.42
2023-04-07T07:28:50.326Z,77.32
2023-04-07T07:31:54.428Z,75.56
2023-04-07T07:34:57.736Z,72.79
2023-04-07T07:38:02.484Z,70.22
2023-04-07T07:41:05.210Z,66.17
2023-04-07T07:44:07.862Z,65.11
2023-04-07T07:47:10.532Z,62.78
2023-04-07T07:50:13.191Z,63.40
2023-04-07T07:53:17.231Z,64.00
2023-04-07T07:56:19.912Z,62.33
2023-04-07T07:59:22.542Z,61.13
2023-04-07T08:02:30.577Z,62.25
2023-04-07T08:05:33.681Z,62.63
2023-04-07T08:08:37.658Z,63.34
2023-04-07T08:11:40.328Z,62.99
2023-04-07T08:14:42.924Z,62.20
2023-04-07T08:17:45.557Z,62.88
2023-04-07T08:20:48.304Z,62.14
2023-04-07T08:23:54.274Z,64.37
2023-04-07T08:26:57.019Z,63.39
2023-04-07T08:30:01.249Z,62.78
2023-04-07T08:33:05.190Z,61.21
2023-04-07T08:36:08.394Z,60.76
2023-04-07T08:39:12.369Z,60.66
2023-04-07T08:42:16.229Z,58.61
2023-04-07T08:45:19.645Z,60.65
2023-04-07T08:48:26.711Z,59.93
2023-04-07T08:51:31.642Z,60.35
2023-04-07T08:54:35.851Z,59.06
2023-04-07T08:57:38.788Z,60.51
2023-04-07T09:00:42.976Z,59.83
2023-04-07T09:03:46.983Z,59.16
2023-04-07T09:06:50.300Z,59.01
2023-04-07T09:09:54.238Z,58.48
2023-04-07T09:12:57.261Z,59.17
2023-04-07T09:16:02.918Z,59.50
2023-04-07T09:19:06.373Z,59.21
2023-04-07T09:22:12.391Z,57.56
2023-04-07T09:25:18.790Z,58.16
2023-04-07T09:28:22.778Z,58.69
2023-04-07T09:31:45.979Z,58.90
2023-04-07T09:34:48.832Z,58.23
2023-04-07T09:38:05.193Z,58.50
2023-04-07T09:41:10.655Z,57.54
2023-04-07T09:44:13.593Z,57.38
2023-04-07T09:47:16.409Z,60.30
2023-04-07T09:50:32.957Z,60.40
2023-04-07T09:53:47.697Z,59.83
2023-04-07T09:56:51.950Z,60.86
2023-04-07T09:59:57.117Z,61.89
2023-04-07T10:03:00.074Z,61.89
2023-04-07T10:06:03.117Z,60.75
2023-04-07T10:09:05.815Z,61.01
2023-04-07T10:12:10.048Z,60.68
2023-04-07T10:15:15.716Z,60.14
2023-04-07T10:18:18.978Z,57.38
2023-04-07T10:21:22.288Z,57.87
2023-04-07T10:24:40.893Z,60.03
2023-04-07T10:27:51.161Z,57.78
2023-04-07T10:30:55.457Z,57.32
2023-04-07T10:33:59.244Z,58.41
2023-04-07T10:37:10.869Z,58.52
2023-04-07T10:40:30.210Z,58.43
2023-04-07T10:43:45.319Z,56.49
2023-04-07T10:47:04.882Z,55.93
2023-04-07T10:50:21.957Z,57.68
2023-04-07T10:53:25.333Z,57.79
2023-04-07T10:56:28.557Z,60.11
2023-04-07T10:59:34.194Z,60.25
2023-04-07T11:02:39.460Z,60.13
2023-04-07T11:05:43.296Z,60.56
2023-04-07T11:08:49.223Z,61.28
2023-04-07T11:11:53.521Z,62.56
2023-04-07T11:14:59.781Z,62.28
2023-04-07T11:18:14.570Z,61.78
2023-04-07T11:21:19.891Z,61.44
2023-04-07T11:24:37.643Z,63.20
2023-04-07T11:27:40.400Z,63.05
2023-04-07T11:30:49.848Z,63.71
2023-04-07T11:33:54.948Z,63.46
2023-04-07T11:36:59.739Z,65.22
2023-04-07T11:40:02.441Z,66.25
2023-04-07T11:43:17.201Z,67.57
2023-04-07T11:46:21.592Z,70.86
2023-04-07T11:49:25.886Z,72.80
2023-04-07T11:52:28.522Z,74.84
2023-04-07T11:55:31.329Z,76.61
2023-04-07T11:58:34.358Z,77.58
2023-04-07T12:01:42.828Z,75.18
2023-04-07T12:04:57.227Z,75.89
2023-04-07T12:07:59.902Z,74.45
2023-04-07T12:11:05.307Z,76.06
2023-04-07T12:14:09.125Z,75.60
2023-04-07T12:17:22.774Z,75.56
2023-04-07T12:20:25.727Z,75.83
2023-04-07T12:23:28.671Z,76.52
2023-04-07T12:26:31.246Z,78.98
2023-04-07T12:29:35.014Z,76.71
2023-04-07T12:32:39.162Z,76.11
2023-04-07T12:35:41.853Z,76.00
2023-04-07T12:38:44.515Z,77.88
2023-04-07T12:41:48.493Z,77.36
2023-04-07T12:44:51.646Z,75.68
2023-04-07T12:47:55.698Z,77.07
2023-04-07T12:50:58.360Z,77.09
2023-04-07T12:54:01.644Z,78.49
2023-04-07T12:57:04.429Z,78.30
2023-04-07T13:00:08.441Z,78.52
2023-04-07T13:03:12.600Z,79.44
2023-04-07T13:06:15.847Z,80.35
2023-04-07T13:09:18.422Z,80.56
2023-04-07T13:12:21.120Z,80.47
2023-04-07T13:15:24.587Z,79.36
2023-04-07T13:18:28.705Z,79.75
2023-04-07T13:24:36.892Z,79.91
2023-04-07T13:27:39.481Z,79.64
2023-04-07T13:30:42.535Z,79.21
2023-04-07T13:33:46.675Z,79.53
2023-04-07T13:36:49.455Z,79.76
2023-04-07T13:39:53.086Z,80.02
2023-04-07T13:42:56.166Z,79.03
2023-04-07T13:45:58.819Z,79.91
2023-04-07T13:49:02.926Z,79.19
2023-04-07T13:52:05.713Z,77.58
2023-04-07T13:55:09.108Z,76.56
2023-04-07T13:58:11.728Z,77.02
2023-04-07T14:01:14.537Z,77.74
2023-04-07T14:04:18.645Z,78.47
2023-04-07T14:07:21.753Z,79.17
2023-04-07T14:10:24.324Z,79.41
2023-04-07T14:13:27.163Z,79.32
2023-04-07T14:16:29.915Z,80.28
2023-04-07T14:19:34.950Z,79.83
2023-04-07T14:22:37.575Z,80.26
2023-04-07T14:25:40.168Z,81.06
2023-04-07T14:28:42.829Z,81.36
2023-04-07T14:31:48.509Z,81.08
2023-04-07T14:34:52.472Z,79.78
2023-04-07T14:37:55.485Z,79.68
2023-04-07T14:41:09.724Z,78.62
2023-04-07T14:44:12.931Z,78.70
2023-04-07T14:47:15.965Z,79.08
2023-04-07T14:50:20.463Z,78.95
2023-04-07T14:53:23.431Z,75.92
2023-04-07T14:56:26.225Z,75.94
2023-04-07T14:59:28.885Z,74.75
2023-04-07T15:02:32.680Z,74.59
2023-04-07T15:05:36.829Z,74.37
2023-04-07T15:08:39.713Z,74.56
2023-04-07T15:11:42.374Z,74.20
2023-04-07T15:14:45.875Z,74.83
2023-04-07T15:17:48.534Z,74.21
2023-04-07T15:20:52.540Z,72.25
2023-04-07T15:23:55.127Z,72.50
2023-04-07T15:26:57.768Z,72.83
2023-04-07T15:30:00.662Z,70.71
2023-04-07T15:33:04.792Z,71.05
2023-04-07T15:36:09.510Z,69.79
2023-04-07T15:39:12.372Z,68.84
2023-04-07T15:42:14.998Z,68.94
2023-04-07T15:45:17.674Z,65.88
2023-04-07T15:48:20.359Z,66.63
2023-04-07T15:51:24.776Z,65.11
2023-04-07T15:54:27.626Z,64.79
2023-04-07T15:57:30.307Z,65.35
2023-04-07T16:00:35.692Z,65.25
2023-04-07T16:03:38.529Z,64.34
2023-04-07T16:06:42.618Z,65.45
2023-04-07T16:09:45.284Z,66.82
2023-04-07T16:12:48.541Z,66.56
2023-04-07T16:15:51.323Z,67.28
2023-04-07T16:18:53.942Z,67.64
2023-04-07T16:21:57.929Z,68.81
2023-04-07T16:25:01.162Z,68.17
2023-04-07T16:28:03.770Z,69.16
2023-04-07T16:31:13.441Z,69.83
2023-04-07T16:34:19.849Z,69.36
2023-04-07T16:37:32.478Z,69.44
2023-04-07T16:40:50.424Z,69.58
2023-04-07T16:44:18.394Z,70.12
2023-04-07T16:47:31.606Z,70.72
2023-04-07T16:50:49.132Z,71.24
2023-04-07T16:54:30.911Z,71.87
2023-04-07T16:57:51.805Z,72.24
2023-04-07T17:01:09.910Z,73.24
2023-04-07T17:04:17.940Z,73.20
2023-04-07T17:07:47.016Z,73.58
2023-04-07T17:11:02.030Z,74.63
2023-04-07T17:14:10.501Z,70.14
2023-04-07T17:17:24.612Z,67.42
2023-04-07T17:20:37.143Z,68.20
2023-04-07T17:23:53.788Z,69.29
2023-04-07T17:27:02.652Z,70.19
2023-04-07T17:30:22.632Z,70.80
2023-04-07T17:33:30.537Z,71.18
2023-04-07T17:36:38.030Z,72.42
2023-04-07T17:39:47.141Z,72.92
2023-04-07T17:42:55.856Z,72.95
2023-04-07T17:46:05.252Z,72.69
2023-04-07T17:49:17.162Z,72.97
2023-04-07T17:52:26.752Z,73.20
2023-04-07T17:56:08.886Z,74.19
2023-04-07T17:59:17.342Z,74.01
2023-04-07T18:02:24.211Z,74.96
2023-04-07T18:05:31.892Z,74.93
2023-04-07T18:08:39.403Z,75.19
2023-04-07T18:11:46.769Z,75.26
2023-04-07T18:14:57.100Z,75.00
2023-04-07T18:18:04.871Z,74.68
2023-04-07T18:21:10.331Z,75.63
2023-04-07T18:24:23.574Z,75.85
2023-04-07T18:27:54.370Z,75.15
2023-04-07T18:31:43.068Z,76.20
2023-04-07T18:35:00.419Z,76.85
2023-04-07T18:38:18.181Z,76.73
2023-04-07T18:41:23.014Z,76.55
2023-04-07T18:44:29.664Z,77.06
2023-04-07T18:47:40.181Z,77.91
2023-04-07T18:50:53.219Z,78.36
2023-04-07T18:54:04.555Z,78.63
2023-04-07T18:57:21.753Z,78.65
2023-04-07T19:00:32.128Z,78.35
2023-04-07T19:03:44.292Z,78.78
2023-04-07T19:07:12.303Z,78.81
2023-04-07T19:10:19.090Z,78.98
2023-04-07T19:13:27.462Z,78.47
2023-04-07T19:16:34.712Z,77.97
2023-04-07T19:19:46.282Z,78.62
2023-04-07T19:22:55.661Z,79.10
2023-04-07T19:26:07.908Z,78.28
2023-04-07T19:29:15.100Z,78.86
2023-04-07T19:32:18.697Z,79.34
2023-04-07T19:36:23.162Z,79.67
2023-04-07T19:39:55.690Z,79.84
2023-04-07T19:43:40.729Z,79.82
2023-04-07T19:46:45.880Z,80.42
2023-04-07T19:49:55.999Z,81.19
2023-04-07T19:56:49.414Z,82.28
2023-04-07T20:00:21.916Z,82.42
2023-04-07T20:03:34.362Z,82.32
2023-04-07T20:07:05.120Z,82.58
2023-04-07T20:10:35.452Z,82.16
2023-04-07T20:13:47.817Z,82.12
2023-04-07T20:17:06.698Z,82.15
2023-04-07T20:20:33.159Z,82.91
2023-04-07T20:23:41.434Z,83.22
2023-04-07T20:26:52.998Z,83.77
2023-04-07T20:30:13.499Z,84.19
2023-04-07T20:33:34.543Z,84.64
2023-04-07T20:36:49.597Z,85.32
2023-04-07T20:40:05.940Z,84.94
2023-04-07T20:43:12.078Z,85.21
2023-04-07T20:46:20.690Z,85.15
2023-04-07T20:49:26.784Z,85.53
2023-04-07T20:52:33.142Z,85.37
2023-04-07T20:55:37.008Z,84.80
2023-04-07T20:58:39.828Z,84.35
2023-04-07T21:01:44.630Z,84.08
2023-04-07T21:04:48.070Z,84.51
2023-04-07T21:07:50.833Z,84.89
2023-04-07T21:10:53.735Z,85.45
2023-04-07T21:13:56.472Z,85.77
2023-04-07T21:17:00.771Z,85.84
2023-04-07T21:20:04.247Z,86.12
2023-04-07T21:23:08.509Z,86.65
2023-04-07T21:26:11.465Z,86.13
2023-04-07T21:29:14.300Z,85.81
2023-04-07T21:32:18.677Z,85.78
2023-04-07T21:35:22.115Z,86.06
2023-04-07T21:38:24.863Z,86.52
2023-04-07T21:41:27.596Z,86.40
2023-04-07T21:44:30.479Z,86.58
2023-04-07T21:47:34.578Z,86.87
2023-04-07T21:50:38.130Z,87.37
2023-04-07T21:53:41.500Z,87.89
2023-04-07T21:56:46.709Z,88.34
2023-04-07T21:59:49.435Z,88.31
2023-04-07T22:02:54.657Z,88.28
2023-04-07T22:05:59.177Z,88.15
2023-04-07T22:09:02.554Z,88.06
2023-04-07T22:12:05.494Z,88.33
2023-04-07T22:15:09.473Z,88.33
2023-04-07T22:18:13.823Z,87.75
2023-04-07T22:21:16.884Z,88.06
2023-04-07T22:24:19.964Z,87.94
2023-04-07T22:27:22.719Z,88.38
2023-04-07T22:30:25.746Z,87.97
2023-04-07T22:33:30.545Z,88.49
2023-04-07T22:36:34.355Z,88.74
2023-04-07T22:39:37.749Z,88.39
2023-04-07T22:42:40.879Z,88.71
2023-04-07T22:45:43.747Z,88.84
2023-04-07T22:48:49.086Z,89.13
2023-04-07T22:51:52.201Z,88.83
2023-04-07T22:54:55.093Z,88.71
2023-04-07T22:57:57.999Z,88.77
2023-04-07T23:01:00.842Z,88.08
2023-04-07T23:04:05.221Z,88.45
2023-04-07T23:07:07.957Z,87.97
2023-04-07T23:10:10.917Z,87.99
2023-04-07T23:13:15.101Z,88.34
2023-04-07T23:16:17.952Z,88.14
2023-04-07T23:19:22.107Z,88.24
2023-04-07T23:22:25.089Z,88.29
2023-04-07T23:25:28.464Z,87.76
2023-04-07T23:28:31.379Z,88.05
2023-04-07T23:31:34.191Z,87.33
2023-04-07T23:34:38.374Z,87.06
2023-04-07T23:37:41.530Z,88.07
2023-04-07T23:40:44.362Z,87.70
2023-04-07T23:43:47.575Z,87.71
2023-04-07T23:46:50.467Z,87.86
2023-04-07T23:49:54.560Z,87.75
2023-04-07T23:52:57.308Z,88.02
2023-04-07T23:56:00.298Z,87.51
2023-04-07T23:59:03.276Z,87.87
